Whitefish, Canada
Current Conditions -  °F | °C
As of 4:00 AM on Monday 20 Oct 2014 (Local Time) from CYSB Reporting Station
Light Rain Light Rain  
Wind Chill: -2°   Ceiling: 2200
Heat Index:   Visibility: 8mi
Dew Point:   Wind: 9mph
Humidity: 100%   Direction: 130°SE
Pressure: 29.82"   Gusts: NA
Location:  46.37°N, 81.32°W
Report Text: CYSB 200800Z 13008KT 8SM -RA FEW008 OVC022 02/02 A2982 RMK SF2SC6 SLP111
Loading
Personal Weather Stations






























Interactive Weather Map
Tropical Storm Tracking
New forecast layout! Learn more

10-Day Weather Forecast

Advertisements
Track Severe Weather on mobile